createdAt,value
2018-04-10T00:00:09.477Z,15.80
2018-04-10T00:02:36.968Z,17.07
2018-04-10T00:05:04.448Z,16.57
2018-04-10T00:07:31.936Z,16.60
2018-04-10T00:10:00.193Z,17.43
2018-04-10T00:12:27.672Z,17.83
2018-04-10T00:14:55.917Z,16.90
2018-04-10T00:17:23.413Z,16.00
2018-04-10T00:19:50.905Z,17.23
2018-04-10T00:22:18.401Z,18.30
2018-04-10T00:24:45.937Z,17.60
2018-04-10T00:27:13.441Z,17.27
2018-04-10T00:29:40.933Z,19.47
2018-04-10T00:32:08.441Z,22.60
2018-04-10T00:34:36.696Z,20.33
2018-04-10T00:37:04.185Z,21.73
2018-04-10T00:39:31.693Z,20.63
2018-04-10T00:41:59.186Z,21.73
2018-04-10T00:44:27.440Z,17.40
2018-04-10T00:46:54.940Z,17.00
2018-04-10T00:49:22.450Z,17.07
2018-04-10T00:51:49.932Z,17.03
2018-04-10T00:54:18.177Z,16.10
2018-04-10T00:56:45.681Z,17.50
2018-04-10T00:59:13.168Z,18.97
2018-04-10T01:01:40.646Z,20.60
2018-04-10T01:04:08.117Z,19.93
2018-04-10T01:06:35.577Z,16.90
2018-04-10T01:09:03.080Z,17.87
2018-04-10T01:11:30.540Z,18.43
2018-04-10T01:13:58.043Z,18.90
2018-04-10T01:16:25.513Z,20.20
2018-04-10T01:18:53.753Z,20.13
2018-04-10T01:21:21.217Z,20.33
2018-04-10T01:23:48.731Z,21.13
2018-04-10T01:26:16.227Z,19.77
2018-04-10T01:28:43.723Z,21.60
2018-04-10T01:31:11.998Z,21.17
2018-04-10T01:33:40.216Z,21.33
2018-04-10T01:36:07.685Z,21.57
2018-04-10T01:38:36.295Z,22.60
2018-04-10T01:41:03.791Z,22.23
2018-04-10T01:43:31.298Z,20.87
2018-04-10T01:45:58.806Z,21.03
2018-04-10T01:48:26.274Z,21.80
2018-04-10T01:50:53.784Z,24.17
2018-04-10T01:53:21.238Z,20.63
2018-04-10T01:55:48.752Z,18.87
2018-04-10T01:58:16.256Z,21.03
2018-04-10T02:00:43.750Z,20.33
2018-04-10T02:03:11.246Z,19.83
2018-04-10T02:05:38.709Z,21.47
2018-04-10T02:08:06.192Z,21.00
2018-04-10T02:13:25.069Z,21.23
2018-04-10T02:15:53.399Z,20.20
2018-04-10T02:18:20.925Z,20.50
2018-04-10T02:20:48.432Z,21.67
2018-04-10T02:23:15.998Z,22.17
2018-04-10T02:25:43.566Z,24.33
2018-04-10T02:28:11.115Z,22.07
2018-04-10T02:30:38.637Z,21.53
2018-04-10T02:33:06.165Z,23.73
2018-04-10T02:35:34.440Z,23.00
2018-04-10T02:38:02.765Z,20.93
2018-04-10T02:40:30.330Z,19.77
2018-04-10T02:42:57.877Z,19.43
2018-04-10T02:45:25.443Z,20.90
2018-04-10T02:47:53.008Z,21.90
2018-04-10T02:50:20.524Z,24.10
2018-04-10T02:52:48.105Z,24.47
2018-04-10T02:55:15.693Z,26.47
2018-04-10T02:57:43.238Z,26.00
2018-04-10T03:00:10.769Z,25.53
2018-04-10T03:02:38.333Z,26.90
2018-04-10T03:05:05.840Z,21.60
2018-04-10T03:07:33.374Z,21.40
2018-04-10T03:10:00.902Z,19.83
2018-04-10T03:12:28.409Z,22.07
2018-04-10T03:14:55.936Z,21.57
2018-04-10T03:17:23.470Z,24.73
2018-04-10T03:19:50.980Z,22.00
2018-04-10T03:22:18.541Z,24.93
2018-04-10T03:24:46.101Z,21.97
2018-04-10T03:27:13.618Z,23.00
2018-04-10T03:29:41.161Z,22.83
2018-04-10T03:32:08.705Z,21.80
2018-04-10T03:34:36.981Z,23.83
2018-04-10T03:37:05.290Z,22.60
2018-04-10T03:39:32.877Z,24.00
2018-04-10T03:42:00.425Z,23.10
2018-04-10T03:44:27.941Z,21.63
2018-04-10T03:46:55.496Z,22.77
2018-04-10T03:49:23.805Z,22.73
2018-04-10T03:51:51.351Z,23.97
2018-04-10T03:54:18.903Z,25.40
2018-04-10T03:56:47.161Z,25.77
2018-04-10T03:59:15.394Z,25.50
2018-04-10T04:01:42.910Z,26.47
2018-04-10T04:04:11.149Z,25.30
2018-04-10T04:06:38.651Z,25.63
2018-04-10T04:09:06.147Z,26.63
2018-04-10T04:11:33.670Z,24.97
2018-04-10T04:14:01.171Z,26.43
2018-04-10T04:16:40.534Z,24.00
2018-04-10T04:19:19.810Z,24.10
2018-04-10T04:21:55.946Z,24.57
2018-04-10T04:24:24.198Z,25.03
2018-04-10T04:26:51.746Z,25.53
2018-04-10T04:29:19.230Z,26.27
2018-04-10T04:31:47.503Z,25.07
2018-04-10T04:34:15.773Z,25.90
2018-04-10T04:36:44.055Z,26.50
2018-04-10T04:39:12.285Z,26.10
2018-04-10T04:41:39.782Z,26.37
2018-04-10T04:44:07.286Z,26.43
2018-04-10T04:46:34.774Z,28.37
2018-04-10T04:49:03.213Z,23.53
2018-04-10T04:51:30.701Z,22.70
2018-04-10T04:53:58.173Z,21.67
2018-04-10T04:56:25.695Z,22.83
2018-04-10T04:58:53.178Z,24.03
2018-04-10T05:01:21.658Z,22.93
2018-04-10T05:03:49.117Z,21.70
2018-04-10T05:06:21.915Z,23.70
2018-04-10T05:08:50.438Z,23.57
2018-04-10T05:11:19.839Z,24.53
2018-04-10T05:13:47.359Z,25.50
2018-04-10T05:16:14.855Z,27.50
2018-04-10T05:18:42.313Z,26.30
2018-04-10T05:21:09.833Z,27.47
2018-04-10T05:23:37.335Z,27.17
2018-04-10T05:26:04.842Z,27.80
2018-04-10T05:28:32.360Z,22.37
2018-04-10T05:30:59.862Z,24.67
2018-04-10T05:33:27.334Z,22.87
2018-04-10T05:35:55.583Z,24.90
2018-04-10T05:38:23.049Z,25.40
2018-04-10T05:40:50.530Z,22.30
2018-04-10T05:43:17.989Z,23.77
2018-04-10T05:45:45.475Z,23.40
2018-04-10T05:48:12.954Z,22.00
2018-04-10T05:50:40.696Z,23.07
2018-04-10T05:53:08.183Z,21.23
2018-04-10T05:55:35.691Z,22.60
2018-04-10T05:58:03.162Z,20.60
2018-04-10T06:00:30.625Z,22.50
2018-04-10T06:02:58.104Z,18.67
2018-04-10T06:05:25.569Z,17.73
2018-04-10T06:07:53.074Z,18.07
2018-04-10T06:10:20.565Z,17.67
2018-04-10T06:12:48.066Z,17.70
2018-04-10T06:15:15.570Z,21.20
2018-04-10T06:17:43.152Z,22.83
2018-04-10T06:20:11.385Z,23.10
2018-04-10T06:22:38.894Z,21.00
2018-04-10T06:25:06.370Z,21.50
2018-04-10T06:27:34.620Z,21.97
2018-04-10T06:30:02.106Z,21.60
2018-04-10T06:32:30.361Z,20.40
2018-04-10T06:34:57.829Z,21.73
2018-04-10T06:37:26.177Z,22.33
2018-04-10T06:39:53.647Z,21.90
2018-04-10T06:42:21.166Z,23.87
2018-04-10T06:44:48.643Z,22.50
2018-04-10T06:47:16.126Z,22.57
2018-04-10T06:49:43.647Z,22.80
2018-04-10T06:52:11.143Z,25.30
2018-04-10T06:54:38.653Z,25.23
2018-04-10T06:57:06.167Z,24.23
2018-04-10T06:59:33.657Z,23.47
2018-04-10T07:02:01.153Z,23.87
2018-04-10T07:04:28.669Z,22.80
2018-04-10T07:06:57.047Z,24.92
2018-04-10T07:09:24.529Z,24.73
2018-04-10T07:11:52.145Z,23.00
2018-04-10T07:14:20.385Z,22.40
2018-04-10T07:16:47.945Z,22.60
2018-04-10T07:19:15.516Z,23.75
2018-04-10T07:21:43.029Z,23.08
2018-04-10T07:24:10.543Z,23.10
2018-04-10T07:26:38.029Z,21.85
2018-04-10T07:29:05.550Z,23.17
2018-04-10T07:31:33.065Z,21.62
2018-04-10T07:34:00.714Z,21.80
2018-04-10T07:36:28.253Z,21.10
2018-04-10T07:38:56.556Z,19.87
2018-04-10T07:41:24.067Z,18.08
2018-04-10T07:43:51.600Z,19.33
2018-04-10T07:46:19.106Z,18.33
2018-04-10T07:48:47.475Z,18.37
2018-04-10T07:51:15.769Z,18.25
2018-04-10T07:53:43.275Z,18.08
2018-04-10T07:56:10.762Z,17.80
2018-04-10T07:58:39.060Z,17.50
2018-04-10T08:01:06.620Z,16.95
2018-04-10T08:03:34.167Z,23.80
2018-04-10T08:06:02.457Z,16.55
2018-04-10T08:08:30.003Z,16.37
2018-04-10T08:10:57.507Z,15.90
2018-04-10T08:13:25.043Z,15.35
2018-04-10T08:15:52.546Z,14.45
2018-04-10T08:18:20.037Z,13.07
2018-04-10T08:20:48.309Z,13.73
2018-04-10T08:23:16.587Z,12.60
2018-04-10T08:25:44.896Z,13.77
2018-04-10T08:28:12.421Z,12.43
2018-04-10T08:30:40.674Z,11.55
2018-04-10T08:33:08.172Z,11.85
2018-04-10T08:35:35.653Z,11.73
2018-04-10T08:38:03.169Z,12.37
2018-04-10T08:40:31.471Z,8.88
2018-04-10T08:42:58.971Z,9.75
2018-04-10T08:45:26.453Z,8.02
2018-04-10T08:47:54.715Z,7.47
2018-04-10T08:50:22.228Z,8.02
2018-04-10T08:52:50.343Z,8.48
2018-04-10T08:55:17.839Z,8.67
2018-04-10T08:57:45.349Z,7.27
2018-04-10T09:00:12.880Z,7.53
2018-04-10T09:02:40.391Z,7.33
2018-04-10T09:05:08.666Z,6.93
2018-04-10T09:07:36.954Z,7.00
2018-04-10T09:10:05.218Z,6.47
2018-04-10T09:12:33.465Z,6.93
2018-04-10T09:15:00.987Z,7.37
2018-04-10T09:17:28.490Z,7.20
2018-04-10T09:19:55.996Z,6.73
2018-04-10T09:22:23.465Z,7.60
2018-04-10T09:24:51.008Z,6.10
2018-04-10T09:27:18.492Z,6.30
2018-04-10T09:29:45.958Z,5.43
2018-04-10T09:32:13.504Z,5.40
2018-04-10T09:34:41.011Z,6.00
2018-04-10T09:37:09.288Z,5.83
2018-04-10T09:39:37.562Z,5.73
2018-04-10T09:42:05.810Z,91.33
2018-04-10T09:44:33.366Z,7.00
2018-04-10T09:47:00.871Z,5.47
2018-04-10T09:49:29.167Z,5.43
2018-04-10T09:51:56.626Z,4.60
2018-04-10T09:54:24.106Z,5.90
2018-04-10T09:56:51.623Z,5.73
2018-04-10T09:59:19.132Z,6.73
2018-04-10T10:01:47.405Z,4.97
2018-04-10T10:04:14.901Z,4.50
2018-04-10T10:06:42.423Z,4.47
2018-04-10T10:09:09.901Z,4.20
2018-04-10T10:11:37.372Z,4.80
2018-04-10T10:14:05.694Z,4.30
2018-04-10T10:16:33.194Z,5.47
2018-04-10T10:19:00.663Z,5.07
2018-04-10T10:21:28.910Z,5.63
2018-04-10T10:23:56.431Z,4.63
2018-04-10T10:26:23.945Z,5.33
2018-04-10T10:28:52.204Z,4.87
2018-04-10T10:31:19.744Z,4.57
2018-04-10T10:33:47.218Z,5.03
2018-04-10T10:36:14.714Z,5.53
2018-04-10T10:38:42.240Z,5.27
2018-04-10T10:41:10.066Z,6.00
2018-04-10T10:43:38.344Z,5.20
2018-04-10T10:46:05.851Z,4.60
2018-04-10T10:48:34.128Z,5.20
2018-04-10T10:51:02.377Z,4.77
2018-04-10T10:53:29.895Z,5.27
2018-04-10T10:55:57.354Z,4.57
2018-04-10T10:58:24.899Z,4.47
2018-04-10T11:00:52.402Z,4.40
2018-04-10T11:03:19.914Z,3.80
2018-04-10T11:05:47.414Z,4.90
2018-04-10T11:08:14.883Z,4.90
2018-04-10T11:10:42.357Z,5.03
2018-04-10T11:13:10.659Z,4.47
2018-04-10T11:15:38.175Z,4.13
2018-04-10T11:18:05.645Z,4.10
2018-04-10T11:20:33.901Z,4.00
2018-04-10T11:23:01.414Z,3.87
2018-04-10T11:25:28.903Z,5.63
2018-04-10T11:27:56.710Z,3.60
2018-04-10T11:30:24.987Z,3.73
2018-04-10T11:32:53.244Z,4.23
2018-04-10T11:35:20.782Z,3.93
2018-04-10T11:37:48.249Z,3.33
2018-04-10T11:40:15.721Z,4.30
2018-04-10T11:42:43.219Z,3.40
2018-04-10T11:45:10.700Z,3.63
2018-04-10T11:47:38.207Z,3.50
2018-04-10T11:50:06.513Z,4.27
2018-04-10T11:52:33.985Z,4.00
2018-04-10T11:55:01.477Z,3.63
2018-04-10T11:57:28.949Z,3.47
2018-04-10T11:59:57.238Z,3.63
2018-04-10T12:02:25.527Z,3.43
2018-04-10T12:04:53.010Z,3.27
2018-04-10T12:07:20.473Z,3.17
2018-04-10T12:09:48.726Z,3.03
2018-04-10T12:12:16.278Z,4.10
2018-04-10T12:14:43.763Z,4.37
2018-04-10T12:17:11.232Z,3.90
2018-04-10T12:19:38.771Z,3.43
2018-04-10T12:22:06.279Z,3.63
2018-04-10T12:24:34.572Z,4.00
2018-04-10T12:27:02.852Z,3.87
2018-04-10T12:29:31.156Z,3.77
2018-04-10T12:31:58.716Z,3.60
2018-04-10T12:34:26.191Z,3.33
2018-04-10T12:36:53.720Z,3.90
2018-04-10T12:39:21.241Z,3.77
2018-04-10T12:41:48.702Z,3.47
2018-04-10T12:44:16.929Z,3.43
2018-04-10T12:46:44.456Z,3.90
2018-04-10T12:49:11.926Z,4.30
2018-04-10T12:51:39.421Z,22.67
2018-04-10T12:54:06.957Z,3.03
2018-04-10T12:56:34.471Z,3.13
2018-04-10T12:59:02.709Z,3.07
2018-04-10T13:01:30.221Z,2.60
2018-04-10T13:03:57.709Z,3.13
2018-04-10T13:06:25.212Z,2.87
2018-04-10T13:08:53.485Z,3.07
2018-04-10T13:11:21.790Z,3.40
2018-04-10T13:13:49.289Z,3.13
2018-04-10T13:16:16.841Z,3.30
2018-04-10T13:18:45.125Z,3.70
2018-04-10T13:21:12.606Z,3.40
2018-04-10T13:23:40.905Z,3.53
2018-04-10T13:26:09.149Z,2.93
2018-04-10T13:28:36.648Z,2.50
2018-04-10T13:31:04.121Z,2.87
2018-04-10T13:33:31.650Z,2.40
2018-04-10T13:35:59.896Z,3.10
2018-04-10T13:38:27.402Z,2.93
2018-04-10T13:40:54.873Z,3.30
2018-04-10T13:43:22.977Z,3.27
2018-04-10T13:45:50.506Z,3.70
2018-04-10T13:48:18.025Z,6.03
2018-04-10T13:50:46.298Z,7.90
2018-04-10T13:53:14.591Z,4.30
2018-04-10T13:55:42.153Z,3.60
2018-04-10T13:58:09.625Z,3.80
2018-04-10T14:00:37.139Z,3.60
2018-04-10T14:03:05.416Z,2.97
2018-04-10T14:05:33.657Z,3.33
2018-04-10T14:08:01.134Z,2.50
2018-04-10T14:10:28.608Z,4.10
2018-04-10T14:12:56.894Z,2.50
2018-04-10T14:15:25.156Z,3.70
2018-04-10T14:17:53.420Z,2.40
2018-04-10T14:20:20.916Z,3.20
2018-04-10T14:22:48.402Z,3.33
2018-04-10T14:25:15.874Z,3.40
2018-04-10T14:27:43.416Z,3.30
2018-04-10T14:30:10.874Z,4.10
2018-04-10T14:32:38.443Z,4.60
2018-04-10T14:35:05.932Z,6.23
2018-04-10T14:37:34.170Z,20.80
2018-04-10T14:40:01.645Z,6.37
2018-04-10T14:42:29.179Z,5.30
2018-04-10T14:44:56.667Z,5.80
2018-04-10T14:47:24.181Z,4.80
2018-04-10T14:49:51.726Z,4.20
2018-04-10T14:52:19.206Z,4.47
2018-04-10T14:54:46.872Z,4.93
2018-04-10T14:57:14.393Z,4.77
2018-04-10T14:59:41.889Z,4.37
2018-04-10T15:02:09.395Z,4.27
2018-04-10T15:04:37.724Z,4.17
2018-04-10T15:07:05.182Z,3.67
2018-04-10T15:09:32.641Z,3.37
2018-04-10T15:12:00.142Z,2.63
2018-04-10T15:14:28.414Z,3.10
2018-04-10T15:16:56.683Z,3.23
2018-04-10T15:19:24.195Z,2.90
2018-04-10T15:21:51.657Z,2.40
2018-04-10T15:24:19.158Z,3.00
2018-04-10T15:26:46.638Z,2.57
2018-04-10T15:29:14.125Z,2.90
2018-04-10T15:31:41.644Z,2.87
2018-04-10T15:34:09.933Z,3.00
2018-04-10T15:36:37.710Z,8.70
2018-04-10T15:39:06.086Z,2.63
2018-04-10T15:41:33.594Z,2.93
2018-04-10T15:44:01.113Z,3.10
2018-04-10T15:46:28.590Z,2.50
2018-04-10T15:48:56.077Z,3.10
2018-04-10T15:51:24.349Z,2.10
2018-04-10T15:53:51.867Z,2.37
2018-04-10T15:56:19.391Z,2.10
2018-04-10T15:58:47.618Z,2.80
2018-04-10T16:01:15.135Z,2.20
2018-04-10T16:03:42.643Z,2.73
2018-04-10T16:11:15.096Z,2.60
2018-04-10T16:13:42.598Z,2.47
2018-04-10T16:16:10.062Z,2.60
2018-04-10T16:18:37.570Z,3.10
2018-04-10T16:21:05.082Z,3.27
2018-04-10T16:23:32.542Z,3.03
2018-04-10T16:26:00.002Z,2.87
2018-04-10T16:28:27.485Z,2.30
2018-04-10T16:30:54.999Z,2.50
2018-04-10T16:33:22.491Z,2.83
2018-04-10T16:35:50.746Z,2.70
2018-04-10T16:38:18.213Z,2.20
2018-04-10T16:40:46.491Z,2.43
2018-04-10T16:43:13.998Z,2.30
2018-04-10T16:45:41.494Z,2.17
2018-04-10T16:48:09.130Z,2.30
2018-04-10T16:50:36.671Z,32.90
2018-04-10T16:53:04.175Z,64.20
2018-04-10T16:55:31.676Z,2.73
2018-04-10T16:57:59.161Z,2.37
2018-04-10T17:00:26.663Z,2.77
2018-04-10T17:02:55.002Z,3.03
2018-04-10T17:05:22.492Z,2.90
2018-04-10T17:07:50.741Z,2.77
2018-04-10T17:10:18.239Z,3.20
2018-04-10T17:12:46.629Z,2.90
2018-04-10T17:15:14.125Z,2.50
2018-04-10T17:17:42.613Z,2.30
2018-04-10T17:20:10.115Z,3.10
2018-04-10T17:22:38.355Z,3.27
2018-04-10T17:25:05.841Z,2.90
2018-04-10T17:27:34.077Z,4.10
2018-04-10T17:30:01.578Z,3.93
2018-04-10T17:32:29.892Z,4.00
2018-04-10T17:34:57.407Z,2.77
2018-04-10T17:37:25.690Z,2.60
2018-04-10T17:39:53.961Z,2.67
2018-04-10T17:42:22.276Z,2.70
2018-04-10T17:44:49.830Z,2.23
2018-04-10T17:47:17.356Z,2.83
2018-04-10T17:49:46.625Z,2.70
2018-04-10T17:52:14.141Z,2.27
2018-04-10T17:54:41.625Z,2.97
2018-04-10T17:57:11.096Z,2.93
2018-04-10T17:59:38.578Z,2.63
2018-04-10T18:02:07.049Z,2.10
2018-04-10T18:04:34.519Z,2.50
2018-04-10T18:07:02.043Z,3.73
2018-04-10T18:09:29.581Z,3.43
2018-04-10T18:11:57.867Z,2.57
2018-04-10T18:14:25.407Z,2.87
2018-04-10T18:16:54.556Z,3.27
2018-04-10T18:19:22.015Z,3.63
2018-04-10T18:21:49.544Z,3.20
2018-04-10T18:24:17.047Z,2.40
2018-04-10T18:26:45.544Z,2.93
2018-04-10T18:29:13.016Z,3.00
2018-04-10T18:31:41.294Z,3.60
2018-04-10T18:34:09.537Z,2.60
2018-04-10T18:36:37.074Z,2.77
2018-04-10T18:39:05.470Z,2.97
2018-04-10T18:41:33.024Z,2.93
2018-04-10T18:44:00.642Z,2.67
2018-04-10T18:46:28.109Z,2.97
2018-04-10T18:48:55.655Z,2.83
2018-04-10T18:51:23.953Z,2.60
2018-04-10T18:53:51.471Z,2.90
2018-04-10T18:56:19.036Z,3.10
2018-04-10T18:58:47.337Z,3.57
2018-04-10T19:01:14.858Z,2.67
2018-04-10T19:03:42.333Z,3.90
2018-04-10T19:06:11.598Z,3.10
2018-04-10T19:08:39.096Z,3.20
2018-04-10T19:11:06.633Z,3.10
2018-04-10T19:13:34.163Z,3.27
2018-04-10T19:16:01.642Z,2.97
2018-04-10T19:18:29.122Z,2.53
2018-04-10T19:20:57.405Z,2.83
2018-04-10T19:23:24.915Z,3.10
2018-04-10T19:25:52.401Z,2.90
2018-04-10T19:28:21.675Z,3.10
2018-04-10T19:30:49.216Z,3.03
2018-04-10T19:33:16.744Z,3.13
2018-04-10T19:35:44.263Z,3.07
2018-04-10T19:38:11.767Z,3.40
2018-04-10T19:40:39.291Z,3.40
2018-04-10T19:43:06.757Z,3.00
2018-04-10T19:45:35.025Z,2.93
2018-04-10T19:48:03.326Z,2.90
2018-04-10T19:50:30.896Z,3.40
2018-04-10T19:52:58.478Z,3.10
2018-04-10T19:55:25.993Z,3.00
2018-04-10T19:57:54.262Z,3.23
2018-04-10T20:00:22.514Z,3.17
2018-04-10T20:02:50.972Z,3.70
2018-04-10T20:05:18.521Z,9.40
2018-04-10T20:07:47.009Z,70.00
2018-04-10T20:10:14.521Z,3.80
2018-04-10T20:12:42.771Z,3.97
2018-04-10T20:15:10.256Z,3.70
2018-04-10T20:17:37.736Z,4.20
2018-04-10T20:20:05.218Z,3.77
2018-04-10T20:22:32.713Z,3.47
2018-04-10T20:25:00.953Z,3.50
2018-04-10T20:27:28.500Z,3.50
2018-04-10T20:29:57.952Z,3.13
2018-04-10T20:32:26.235Z,3.40
2018-04-10T20:34:54.519Z,3.87
2018-04-10T20:37:22.039Z,3.60
2018-04-10T20:39:49.557Z,3.20
2018-04-10T20:42:17.066Z,3.40
2018-04-10T20:44:44.650Z,3.23
2018-04-10T20:47:14.817Z,2.73
2018-04-10T20:49:42.331Z,3.23
2018-04-10T20:52:10.601Z,2.80
2018-04-10T20:54:38.903Z,2.73
2018-04-10T20:57:06.417Z,2.93
2018-04-10T20:59:33.924Z,2.83
2018-04-10T21:02:01.418Z,3.40
2018-04-10T21:04:28.934Z,2.83
2018-04-10T21:06:56.453Z,3.47
2018-04-10T21:09:23.963Z,2.80
2018-04-10T21:11:51.429Z,2.80
2018-04-10T21:14:18.912Z,2.90
2018-04-10T21:16:46.452Z,2.80
2018-04-10T21:19:13.984Z,3.27
2018-04-10T21:21:41.453Z,3.20
2018-04-10T21:24:09.004Z,3.83
2018-04-10T21:26:36.509Z,3.20
2018-04-10T21:29:04.016Z,3.40
2018-04-10T21:31:31.550Z,3.43
2018-04-10T21:33:59.818Z,2.90
2018-04-10T21:36:28.111Z,3.10
2018-04-10T21:38:55.679Z,3.03
2018-04-10T21:41:23.195Z,3.30
2018-04-10T21:43:50.700Z,3.17
2018-04-10T21:46:18.251Z,2.60
2018-04-10T21:48:45.799Z,3.10
2018-04-10T21:51:14.031Z,3.23
2018-04-10T21:53:41.573Z,3.50
2018-04-10T21:56:09.062Z,3.20
2018-04-10T21:58:36.579Z,2.90
2018-04-10T22:01:04.132Z,3.00
2018-04-10T22:03:31.655Z,3.17
2018-04-10T22:05:59.933Z,3.30
2018-04-10T22:08:28.218Z,3.07
2018-04-10T22:10:55.738Z,3.00
2018-04-10T22:13:23.274Z,3.30
2018-04-10T22:15:50.824Z,3.50
2018-04-10T22:18:18.346Z,2.93
2018-04-10T22:20:46.606Z,3.37
2018-04-10T22:23:14.895Z,4.00
2018-04-10T22:25:43.138Z,4.07
2018-04-10T22:28:10.755Z,3.80
2018-04-10T22:30:38.283Z,3.73
2018-04-10T22:33:06.568Z,3.40
2018-04-10T22:35:34.106Z,3.70
2018-04-10T22:38:01.617Z,3.60
2018-04-10T22:40:29.106Z,3.57
2018-04-10T22:42:57.338Z,3.60
2018-04-10T22:45:24.880Z,3.50
2018-04-10T22:47:52.354Z,3.70
2018-04-10T22:50:19.833Z,3.57
2018-04-10T22:52:47.351Z,3.47
2018-04-10T22:55:14.887Z,3.67
2018-04-10T22:57:42.416Z,3.57
2018-04-10T23:00:10.668Z,3.47
2018-04-10T23:02:38.141Z,3.60
2018-04-10T23:05:06.485Z,3.47
2018-04-10T23:07:33.970Z,3.67
2018-04-10T23:10:01.483Z,4.00
2018-04-10T23:12:28.975Z,3.90
2018-04-10T23:14:56.508Z,4.03
2018-04-10T23:17:24.003Z,8.10
2018-04-10T23:19:51.515Z,7.87
2018-04-10T23:22:18.999Z,15.90
2018-04-10T23:24:46.499Z,5.33
2018-04-10T23:27:13.988Z,4.83
2018-04-10T23:29:42.315Z,4.40
2018-04-10T23:32:09.847Z,4.60
2018-04-10T23:34:37.333Z,4.43
2018-04-10T23:37:04.871Z,11.00
2018-04-10T23:39:32.371Z,7.40
2018-04-10T23:41:59.841Z,6.07
2018-04-10T23:44:27.328Z,6.17
2018-04-10T23:46:54.839Z,5.40
2018-04-10T23:49:22.335Z,5.50
2018-04-10T23:51:50.607Z,5.33
2018-04-10T23:54:18.908Z,5.63
2018-04-10T23:56:46.364Z,6.33
2018-04-10T23:59:13.880Z,6.13
